Time;durP1;ratioP1;P1;durP2;ratioP2;P2;SDS_P1;SDS_P2;PMS_P1;PMS_P2;Temp;Humidity;BMP_temperature;BMP_pressure;BME280_temperature;BME280_humidity;BME280_pressure;Samples;Min_cycle;Max_cycle;Signal;HPM_P1;HPM_P2
2020/12/19 00:00:00;;;;;;;78.67;28.85;;;;;;;0.98;90.11;101180.93;1774440;80;21659;-76
2020/12/19 00:02:28;;;;;;;72.03;28.92;;;;;;;0.96;90.16;101188.67;1770113;80;21148;-75
2020/12/19 00:04:56;;;;;;;65.83;27.62;;;;;;;0.96;90.21;101193.86;1770108;81;21219;-77
2020/12/19 00:07:24;;;;;;;63.13;27.10;;;;;;;0.94;90.18;101196.84;1815516;79;21162;-77
2020/12/19 00:09:52;;;;;;;66.60;28.75;;;;;;;0.94;90.10;101198.14;1813859;79;21206;-76
2020/12/19 00:12:21;;;;;;;61.35;24.18;;;;;;;0.96;90.07;101197.75;1805986;78;21657;-78
2020/12/19 00:14:50;;;;;;;58.75;25.68;;;;;;;0.96;90.16;101189.97;1785201;80;21165;-77
2020/12/19 00:17:17;;;;;;;50.73;22.27;;;;;;;0.95;90.14;101189.53;1787931;80;22307;-78
2020/12/19 00:19:46;;;;;;;57.40;24.67;;;;;;;0.92;90.14;101189.48;1787746;80;21664;-77
2020/12/19 00:22:14;;;;;;;59.60;24.00;;;;;;;0.95;90.05;101191.26;1746086;81;21804;-76
2020/12/19 00:24:41;;;;;;;49.10;21.07;;;;;;;0.95;89.98;101188.23;1760458;81;21608;-77
2020/12/19 00:27:10;;;;;;;55.85;23.30;;;;;;;0.95;89.96;101191.26;1760417;81;21165;-76
2020/12/19 00:29:38;;;;;;;48.30;19.55;;;;;;;0.92;89.97;101189.48;1761686;81;22159;-76
2020/12/19 00:32:08;;;;;;;51.85;22.27;;;;;;;0.92;90.08;101194.67;1761250;81;21677;-74
2020/12/19 00:34:37;;;;;;;54.58;23.30;;;;;;;0.94;90.06;101192.95;1789071;79;21125;-74
2020/12/19 00:37:05;;;;;;;59.35;25.10;;;;;;;0.93;90.03;101191.22;1792423;80;21183;-74
2020/12/19 00:39:33;;;;;;;57.38;23.62;;;;;;;0.93;90.08;101193.81;1792653;80;21139;-72
2020/12/19 00:42:02;;;;;;;57.23;24.12;;;;;;;0.96;90.13;101201.64;1791900;79;21363;-75
2020/12/19 00:44:29;;;;;;;57.83;23.90;;;;;;;0.97;90.13;101198.65;1792801;80;21167;-75
2020/12/19 00:46:57;;;;;;;60.80;25.23;;;;;;;0.96;90.13;101199.05;1791609;80;21725;-72
2020/12/19 00:49:25;;;;;;;53.15;23.20;;;;;;;0.97;90.01;101190.44;1792513;80;21159;-80
2020/12/19 00:51:53;;;;;;;58.85;24.43;;;;;;;0.99;89.94;101187.85;1792280;80;21614;-79
2020/12/19 00:54:21;;;;;;;67.15;27.13;;;;;;;0.98;89.95;101185.69;1792281;80;21371;-80
2020/12/19 00:56:52;;;;;;;64.22;26.35;;;;;;;1.00;90.00;101189.19;1792044;80;21199;-79
2020/12/19 00:59:19;;;;;;;65.72;26.60;;;;;;;0.98;90.01;101180.50;1792224;80;21179;-78
2020/12/19 01:01:47;;;;;;;69.03;28.23;;;;;;;0.97;89.98;101185.25;1791693;80;21128;-80
2020/12/19 01:04:15;;;;;;;65.15;25.17;;;;;;;0.97;89.97;101181.36;1762444;80;21226;-79
2020/12/19 01:06:42;;;;;;;65.62;26.07;;;;;;;1.00;89.99;101186.59;1756134;81;22351;-78
2020/12/19 01:09:10;;;;;;;64.75;25.77;;;;;;;1.01;89.91;101193.55;1755025;80;21201;-77
2020/12/19 01:11:38;;;;;;;64.00;26.05;;;;;;;1.01;89.94;101192.25;1757706;80;21153;-77
2020/12/19 01:14:06;;;;;;;66.75;27.52;;;;;;;1.00;89.93;101192.21;1747668;81;21726;-79
2020/12/19 01:16:35;;;;;;;71.85;28.40;;;;;;;1.00;89.87;101191.78;1778977;80;21253;-79
2020/12/19 01:19:06;;;;;;;62.88;26.33;;;;;;;0.98;89.85;101192.17;1767652;80;21364;-80
2020/12/19 01:21:35;;;;;;;59.70;25.15;;;;;;;0.98;89.68;101191.30;1778952;80;21138;-81
2020/12/19 01:24:03;;;;;;;60.83;24.45;;;;;;;0.96;89.69;101196.45;1767537;80;21155;-79
2020/12/19 01:26:32;;;;;;;67.25;26.42;;;;;;;0.95;89.78;101189.53;1767818;81;21166;-80
2020/12/19 01:28:59;;;;;;;66.77;26.25;;;;;;;0.96;89.80;101188.67;1767928;81;22139;-79
2020/12/19 01:31:26;;;;;;;72.25;27.32;;;;;;;0.98;89.77;101192.17;1767843;81;21340;-81
2020/12/19 01:33:54;;;;;;;64.00;26.62;;;;;;;0.99;89.71;101188.75;1767718;81;21647;-80
2020/12/19 01:36:23;;;;;;;64.67;27.73;;;;;;;0.99;89.71;101190.05;1767696;81;21626;-80
2020/12/19 01:38:52;;;;;;;62.75;24.95;;;;;;;1.03;89.74;101198.31;1767341;81;21227;-81
2020/12/19 01:41:23;;;;;;;60.95;25.52;;;;;;;1.01;89.70;101194.84;1768055;81;21182;-82
2020/12/19 01:43:55;;;;;;;67.12;27.48;;;;;;;1.01;89.79;101201.33;1767642;78;21361;31
2020/12/19 01:46:32;;;;;;;60.98;25.75;;;;;;;1.03;89.71;101200.91;1754330;81;21567;-68
2020/12/19 01:49:02;;;;;;;47.35;20.77;;;;;;;1.04;89.55;101198.78;1710673;83;21210;-68
2020/12/19 01:51:30;;;;;;;55.50;23.45;;;;;;;1.03;89.50;101194.85;1715393;83;21784;-67
2020/12/19 01:53:57;;;;;;;63.60;25.12;;;;;;;1.01;89.60;101197.44;1718499;83;21210;-67
2020/12/19 01:56:47;;;;;;;70.37;26.50;;;;;;;1.02;89.56;101194.41;1707360;82;22206;-68
2020/12/19 01:59:16;;;;;;;66.95;25.62;;;;;;;1.00;89.53;101193.08;1741468;82;21168;-67
2020/12/19 02:01:54;;;;;;;62.05;26.20;;;;;;;0.97;89.48;101187.84;1740880;82;21191;-67
2020/12/19 02:04:24;;;;;;;57.45;24.35;;;;;;;0.98;89.43;101198.66;1741273;81;21188;-67
2020/12/19 02:06:55;;;;;;;54.03;23.43;;;;;;;0.98;89.44;101193.90;1739727;82;21206;-67
2020/12/19 02:09:26;;;;;;;55.55;23.85;;;;;;;0.99;89.57;101201.72;1739682;82;21358;-67
2020/12/19 02:11:54;;;;;;;54.85;24.07;;;;;;;0.98;89.55;101200.38;1739579;82;21199;-67
2020/12/19 02:14:22;;;;;;;41.23;18.37;;;;;;;0.95;89.51;101201.20;1768247;81;21645;-67
2020/12/19 02:17:04;;;;;;;54.30;22.73;;;;;;;0.97;89.54;101199.95;1759676;81;21730;-67
2020/12/19 02:19:33;;;;;;;55.70;23.77;;;;;;;0.99;89.44;101193.03;1741270;82;21667;-66
2020/12/19 02:22:03;;;;;;;52.60;22.98;;;;;;;0.98;89.45;101194.77;1768264;81;21268;-67
2020/12/19 02:24:31;;;;;;;60.55;25.70;;;;;;;0.97;89.43;101198.22;1765864;80;21203;-66
2020/12/19 02:26:59;;;;;;;61.83;24.00;;;;;;;0.95;89.47;101189.95;1763236;81;21183;-66
2020/12/19 02:29:31;;;;;;;52.88;23.30;;;;;;;0.95;89.46;101188.23;1763336;81;21655;-67
2020/12/19 02:32:00;;;;;;;54.25;23.27;;;;;;;0.97;89.42;101184.38;1763335;81;21630;-66
2020/12/19 02:34:28;;;;;;;50.40;22.50;;;;;;;0.98;89.42;101184.39;1733866;81;21844;-66
2020/12/19 02:36:56;;;;;;;58.28;24.32;;;;;;;0.96;89.45;101186.08;1750090;82;21206;-67
2020/12/19 02:39:23;;;;;;;53.78;24.55;;;;;;;0.96;89.50;101191.69;1744258;82;21212;-67
2020/12/19 02:41:51;;;;;;;60.00;25.48;;;;;;;0.94;89.50;101185.59;1739456;82;21133;-66
2020/12/19 02:44:20;;;;;;;55.98;23.57;;;;;;;0.95;89.49;101186.94;1739427;82;21205;-66
2020/12/19 02:46:49;;;;;;;36.35;16.02;;;;;;;0.95;89.37;101180.45;1737131;82;22354;-66
2020/12/19 02:49:18;;;;;;;50.58;22.00;;;;;;;0.94;89.37;101190.36;1736944;82;21192;-66
2020/12/19 02:51:46;;;;;;;49.30;21.52;;;;;;;0.92;89.46;101190.78;1737039;82;21191;-66
2020/12/19 02:54:14;;;;;;;55.12;23.35;;;;;;;0.88;89.54;101195.45;1736943;82;21212;-65
2020/12/19 02:56:42;;;;;;;50.25;22.40;;;;;;;0.89;89.58;101193.29;1737047;82;21264;-67
2020/12/19 02:59:10;;;;;;;53.05;21.50;;;;;;;0.88;89.52;101195.45;1737044;82;21292;-66
2020/12/19 03:01:40;;;;;;;40.30;18.52;;;;;;;0.86;89.57;101195.83;1736969;82;21695;-65
2020/12/19 03:04:07;;;;;;;52.43;21.33;;;;;;;0.86;89.64;101197.13;1736973;82;21600;-65
2020/12/19 03:06:35;;;;;;;53.30;23.35;;;;;;;0.85;89.72;101195.36;1737066;82;21136;-67
2020/12/19 03:09:04;;;;;;;48.38;21.95;;;;;;;0.83;89.74;101195.78;1737025;82;21189;-65
2020/12/19 03:11:35;;;;;;;42.45;20.48;;;;;;;0.85;89.76;101191.48;1737016;82;21380;-65
2020/12/19 03:14:03;;;;;;;46.20;21.10;;;;;;;0.89;89.82;101184.22;1753018;81;21616;-67
2020/12/19 03:16:31;;;;;;;49.18;22.50;;;;;;;0.91;89.78;101190.30;1754974;81;21171;-66
2020/12/19 03:18:58;;;;;;;46.42;21.15;;;;;;;0.88;89.80;101190.26;1754687;81;22096;-66
2020/12/19 03:21:26;;;;;;;50.00;22.25;;;;;;;0.88;89.85;101190.26;1759091;81;21172;-66
2020/12/19 03:23:54;;;;;;;49.85;22.40;;;;;;;0.93;89.78;101200.30;1759591;81;21374;-66
2020/12/19 03:26:22;;;;;;;51.98;22.65;;;;;;;0.94;89.73;101195.97;1759814;81;21199;-66
2020/12/19 03:28:50;;;;;;;43.10;19.80;;;;;;;0.95;89.67;101199.91;1759798;81;21164;-66
2020/12/19 03:31:18;;;;;;;46.88;19.82;;;;;;;0.94;89.81;101200.73;1759657;81;21167;-66
2020/12/19 03:33:46;;;;;;;39.03;16.50;;;;;;;0.96;89.88;101201.64;1733027;81;21614;-66
2020/12/19 03:36:14;;;;;;;54.93;21.93;;;;;;;0.94;89.80;101194.25;1715104;83;22165;-66
2020/12/19 03:38:43;;;;;;;36.77;18.12;;;;;;;0.95;89.78;101198.61;1714905;83;21202;-65
2020/12/19 03:41:10;;;;;;;40.92;15.85;;;;;;;0.96;89.74;101195.16;1715127;83;21215;-65
2020/12/19 03:43:38;;;;;;;43.05;20.52;;;;;;;0.97;89.75;101191.73;1685281;85;21223;-65
2020/12/19 03:46:06;;;;;;;37.17;17.82;;;;;;;0.96;89.76;101201.64;1705218;83;21191;-66
2020/12/19 03:48:34;;;;;;;51.28;22.65;;;;;;;0.95;89.82;101197.31;1699805;84;22286;-65
2020/12/19 03:52:53;;;;;;;50.43;23.03;;;;;;;1.01;89.75;101197.44;1775688;79;22712;-65
2020/12/19 03:55:21;;;;;;;54.08;22.17;;;;;;;0.96;89.75;101196.45;1748230;82;21187;-65
2020/12/19 03:57:49;;;;;;;53.75;22.50;;;;;;;0.97;89.87;101204.70;1748172;82;21571;-65
2020/12/19 04:00:17;;;;;;;56.37;24.00;;;;;;;0.98;89.90;101202.55;1748215;81;21698;-67
2020/12/19 04:02:45;;;;;;;54.05;23.35;;;;;;;0.98;89.93;101199.95;1748208;82;21687;-66
2020/12/19 04:05:13;;;;;;;56.63;23.42;;;;;;;1.01;89.96;101202.63;1748179;82;21187;-66
2020/12/19 04:07:41;;;;;;;53.65;23.50;;;;;;;1.05;89.89;101203.54;1737857;82;21156;-66
2020/12/19 04:10:12;;;;;;;44.48;19.32;;;;;;;1.03;89.92;101203.50;1718627;82;22179;-66
2020/12/19 04:12:39;;;;;;;50.80;21.68;;;;;;;1.02;89.96;101196.58;1704108;83;21609;-67
2020/12/19 04:15:09;;;;;;;53.30;23.18;;;;;;;1.04;90.00;101202.67;1674579;85;21687;-67
2020/12/19 04:17:38;;;;;;;52.38;22.87;;;;;;;1.07;89.88;101197.09;1674537;85;21601;-67
2020/12/19 04:20:08;;;;;;;54.08;23.00;;;;;;;1.06;89.85;101200.12;1674547;85;21714;-67
2020/12/19 04:22:36;;;;;;;50.58;21.48;;;;;;;1.04;89.90;101197.48;1674692;85;22128;-67
2020/12/19 04:25:04;;;;;;;57.73;23.07;;;;;;;1.04;89.93;101196.19;1674304;85;21435;-66
2020/12/19 04:27:32;;;;;;;47.53;20.48;;;;;;;1.00;89.92;101189.19;1674487;85;21180;-67
2020/12/19 04:30:01;;;;;;;40.60;16.97;;;;;;;1.07;89.89;101198.39;1674343;85;21184;-67
2020/12/19 04:32:30;;;;;;;48.87;22.27;;;;;;;1.10;89.87;101194.12;1674504;85;21583;-67
2020/12/19 04:34:58;;;;;;;44.88;17.92;;;;;;;1.12;89.93;101200.64;1674515;85;22306;-66
2020/12/19 04:37:26;;;;;;;45.60;20.68;;;;;;;1.13;89.95;101198.48;1674473;85;21378;-67
2020/12/19 04:39:55;;;;;;;57.48;22.70;;;;;;;1.12;89.99;101196.75;1688601;83;21194;-66
2020/12/19 04:42:23;;;;;;;52.53;23.10;;;;;;;1.12;89.93;101199.34;1689488;84;21143;-68
2020/12/19 04:44:51;;;;;;;50.58;21.65;;;;;;;1.15;89.86;101204.58;1689343;84;21191;-66
2020/12/19 04:47:19;;;;;;;56.98;24.27;;;;;;;1.12;89.90;101196.75;1689497;84;21208;-66
2020/12/19 04:49:47;;;;;;;54.48;23.50;;;;;;;1.11;89.89;101195.02;1689363;84;21231;-66
2020/12/19 04:52:16;;;;;;;58.23;23.42;;;;;;;1.07;89.89;101199.69;1689924;84;21657;-66
2020/12/19 04:54:45;;;;;;;54.55;23.65;;;;;;;1.07;90.03;101195.80;1690000;84;21178;-66
2020/12/19 04:57:18;;;;;;;47.20;22.05;;;;;;;1.05;89.94;101188.84;1690170;84;21162;-66
2020/12/19 04:59:46;;;;;;;44.55;20.08;;;;;;;1.09;90.02;101186.33;1702344;79;21211;-77
2020/12/19 05:02:14;;;;;;;45.63;19.23;;;;;;;1.10;90.10;101188.92;1748183;82;21140;-77
2020/12/19 05:04:42;;;;;;;48.25;20.57;;;;;;;1.10;90.07;101188.92;1747610;81;21721;-79
2020/12/19 05:07:12;;;;;;;46.08;20.20;;;;;;;1.12;90.10;101194.16;1745219;81;21186;-77
2020/12/19 05:09:44;;;;;;;33.10;14.47;;;;;;;1.12;90.06;101192.86;1742619;82;21627;-77
2020/12/19 05:12:13;;;;;;;49.00;21.02;;;;;;;1.12;89.97;101195.45;1740799;82;21363;-77
2020/12/19 05:14:41;;;;;;;41.40;18.25;;;;;;;1.15;89.95;101199.39;1729982;82;21178;-78
2020/12/19 05:17:08;;;;;;;46.98;20.52;;;;;;;1.14;89.99;101198.95;1705432;82;21174;-81
2020/12/19 05:19:37;;;;;;;45.28;20.72;;;;;;;1.12;89.99;101200.21;1730934;82;21200;-81
2020/12/19 05:22:05;;;;;;;45.65;22.87;;;;;;;1.10;90.06;101201.03;1741721;82;21585;-80
2020/12/19 05:24:35;;;;;;;50.20;22.73;;;;;;;1.11;90.12;101197.61;1742640;82;22122;-76
2020/12/19 05:27:10;;;;;;;51.98;22.25;;;;;;;1.15;90.10;101202.89;1742603;82;21667;-80
2020/12/19 05:29:38;;;;;;;45.12;19.85;;;;;;;1.15;90.08;101203.28;1717495;82;21189;-77
2020/12/19 05:32:06;;;;;;;47.95;21.17;;;;;;;1.16;90.17;101202.45;1742637;82;21177;-77
2020/12/19 05:34:37;;;;;;;52.43;22.45;;;;;;;1.15;90.21;101205.48;1742510;82;21145;-71
2020/12/19 05:37:05;;;;;;;47.53;21.00;;;;;;;1.14;90.16;101208.03;1712976;82;22100;-76
2020/12/19 05:39:33;;;;;;;39.08;16.60;;;;;;;1.17;90.11;101205.48;1742589;82;21170;-78
2020/12/19 05:42:01;;;;;;;42.50;19.02;;;;;;;1.20;90.06;101213.35;1742552;82;21154;-77
2020/12/19 05:44:29;;;;;;;36.77;17.60;;;;;;;1.18;90.01;101216.34;1742507;82;21135;-79
2020/12/19 05:46:57;;;;;;;42.08;18.98;;;;;;;1.15;90.01;101216.26;1700295;78;22322;-67
2020/12/19 05:49:25;;;;;;;45.20;22.45;;;;;;;1.13;89.98;101221.84;1688390;84;21300;-68
2020/12/19 05:51:53;;;;;;;51.75;22.60;;;;;;;1.11;90.05;101217.07;1696128;82;21740;-69
2020/12/19 05:54:21;;;;;;;44.65;20.08;;;;;;;1.11;90.04;101228.75;1709724;83;21166;-69
2020/12/19 05:56:49;;;;;;;35.17;17.10;;;;;;;1.11;90.00;101227.02;1709499;83;21620;-68
2020/12/19 05:59:19;;;;;;;41.30;18.90;;;;;;;1.09;90.04;101229.13;1732919;82;21169;-67
2020/12/19 06:01:49;;;;;;;40.52;17.42;;;;;;;1.09;90.11;101238.22;1739283;82;21210;-67
2020/12/19 06:04:18;;;;;;;49.65;20.92;;;;;;;1.08;90.26;101242.94;1727608;79;21198;-77
2020/12/19 06:06:47;;;;;;;40.03;18.37;;;;;;;1.11;90.31;101245.61;1712719;83;21564;-78
2020/12/19 06:09:16;;;;;;;43.35;20.48;;;;;;;1.13;90.26;101252.97;1713071;83;21167;-76
2020/12/19 06:11:53;;;;;;;45.23;20.65;;;;;;;1.14;90.23;101252.14;1712556;83;21738;-71
2020/12/19 06:14:22;;;;;;;44.23;21.17;;;;;;;1.16;90.24;101255.65;1725544;82;22244;-72
2020/12/19 06:16:54;;;;;;;45.98;20.88;;;;;;;1.18;90.28;101264.34;1743435;82;21219;-72
2020/12/19 06:19:23;;;;;;;41.80;19.35;;;;;;;1.21;90.35;101269.58;1742003;79;21026;-71
2020/12/19 06:21:56;;;;;;;40.00;17.65;;;;;;;1.23;90.35;101266.59;1662096;86;21666;-70
2020/12/19 06:24:45;;;;;;;33.55;14.35;;;;;;;1.24;90.23;101270.52;1697573;83;21638;-71
2020/12/19 06:27:28;;;;;;;45.28;21.10;;;;;;;1.25;90.07;101273.98;1708956;83;21219;-73
2020/12/19 06:29:56;;;;;;;48.28;21.17;;;;;;;1.27;90.17;101277.49;1716916;83;21702;-71
2020/12/19 06:32:29;;;;;;;48.68;22.32;;;;;;;1.28;90.11;101284.42;1717026;83;21175;-71
2020/12/19 06:35:09;;;;;;;50.08;22.80;;;;;;;1.25;89.98;101289.56;1717481;83;21187;-71
2020/12/19 06:37:38;;;;;;;48.75;22.77;;;;;;;1.23;89.98;101294.71;1717152;83;21175;-71
2020/12/19 06:40:20;;;;;;;45.37;20.73;;;;;;;1.24;89.96;101296.88;1717890;83;21631;-70
2020/12/19 06:43:12;;;;;;;44.60;21.73;;;;;;;1.24;89.91;101292.59;1717293;83;21199;-70
2020/12/19 06:45:40;;;;;;;48.78;22.02;;;;;;;1.25;89.90;101293.45;1717669;83;21179;-71
2020/12/19 06:48:30;;;;;;;48.92;21.30;;;;;;;1.25;89.95;101297.34;1717701;82;21202;-71
2020/12/19 06:51:02;;;;;;;47.40;20.45;;;;;;;1.24;89.97;101300.77;1717719;83;22156;-72
2020/12/19 06:53:32;;;;;;;47.35;21.82;;;;;;;1.26;90.02;101300.38;1700588;83;21320;-71
2020/12/19 06:56:01;;;;;;;53.20;23.12;;;;;;;1.28;90.00;101296.09;1696894;83;21201;-72
2020/12/19 06:58:35;;;;;;;47.43;20.75;;;;;;;1.28;89.99;101296.09;1632391;86;21811;-70
2020/12/19 07:01:24;;;;;;;53.23;23.30;;;;;;;1.30;90.13;101298.30;1664333;80;21213;-72
2020/12/19 07:03:52;;;;;;;45.10;19.57;;;;;;;1.34;90.18;101294.06;1648403;86;21634;-72
2020/12/19 07:06:20;;;;;;;36.28;16.32;;;;;;;1.36;90.21;101291.95;1642800;85;21420;-73
2020/12/19 07:08:50;;;;;;;44.05;18.75;;;;;;;1.41;90.08;101293.33;1686214;84;21172;-72
2020/12/19 07:11:39;;;;;;;48.80;21.23;;;;;;;1.43;90.09;101294.23;1673671;85;21234;-73
2020/12/19 07:14:15;;;;;;;53.20;24.52;;;;;;;1.47;90.22;101289.53;1656300;86;21167;-74
2020/12/19 07:16:52;;;;;;;54.33;24.02;;;;;;;1.47;90.15;101293.42;1685459;85;21159;-73
2020/12/19 07:19:27;;;;;;;53.55;23.45;;;;;;;1.46;90.22;101293.85;1670763;85;21221;-73
2020/12/19 07:21:57;;;;;;;51.50;22.70;;;;;;;1.47;90.24;101296.02;1657470;85;21199;-72
2020/12/19 07:24:25;;;;;;;49.45;21.55;;;;;;;1.50;90.31;101292.20;1661149;84;21246;-74
2020/12/19 07:26:54;;;;;;;50.92;22.13;;;;;;;1.53;90.24;101293.98;1668751;85;21571;-74
2020/12/19 07:29:23;;;;;;;48.95;21.20;;;;;;;1.56;90.28;101294.89;1661053;84;21241;-74
2020/12/19 07:31:59;;;;;;;44.83;20.08;;;;;;;1.60;90.34;101290.21;1673371;85;21357;-73
2020/12/19 07:34:27;;;;;;;47.48;20.43;;;;;;;1.63;90.24;101295.48;1666785;85;21242;-74
2020/12/19 07:36:55;;;;;;;35.03;15.88;;;;;;;1.68;90.18;101295.56;1678735;83;21215;-73
2020/12/19 07:39:24;;;;;;;42.58;18.52;;;;;;;1.72;90.14;101296.05;1696875;83;21654;-73
2020/12/19 07:42:09;;;;;;;52.48;20.92;;;;;;;1.73;90.16;101297.81;1693210;83;21252;-73
2020/12/19 07:44:38;;;;;;;52.43;21.55;;;;;;;1.77;90.15;101287.94;1655126;85;22566;-76
2020/12/19 07:47:13;;;;;;;48.90;20.45;;;;;;;1.81;90.15;101286.25;1665182;84;22476;-72
2020/12/19 07:49:46;;;;;;;43.02;18.32;;;;;;;1.86;89.92;101295.89;1645795;84;33946;-72
2020/12/19 07:52:20;;;;;;;42.73;20.12;;;;;;;1.87;89.65;101293.73;1668420;84;21603;-73
2020/12/19 07:54:58;;;;;;;53.58;23.52;;;;;;;1.88;89.64;101299.36;1673083;84;21183;-72
2020/12/19 07:57:32;;;;;;;49.10;22.15;;;;;;;1.91;89.75;101305.45;1670274;84;21398;-69
2020/12/19 08:00:03;;;;;;;50.50;21.20;;;;;;;1.89;89.75;101310.65;1659854;84;21231;-77
2020/12/19 08:02:35;;;;;;;40.92;17.48;;;;;;;1.91;89.79;101315.85;1650069;86;28181;-72
2020/12/19 08:05:06;;;;;;;44.48;20.85;;;;;;;1.96;89.78;101315.09;1636017;85;21211;-71
2020/12/19 08:07:34;;;;;;;46.80;19.70;;;;;;;2.02;89.78;101307.38;1649674;85;21597;-71
2020/12/19 08:10:12;;;;;;;50.12;23.25;;;;;;;2.05;89.67;101313.09;1657375;85;21470;-72
2020/12/19 08:12:40;;;;;;;52.48;22.02;;;;;;;2.07;89.54;101319.16;1657039;85;21191;-72
2020/12/19 08:15:17;;;;;;;62.15;25.00;;;;;;;2.06;89.51;101318.72;1651475;85;21654;-72
2020/12/19 08:18:04;;;;;;;53.02;22.35;;;;;;;2.07;89.46;101316.55;1662256;85;21255;-72
2020/12/19 08:20:37;;;;;;;46.15;18.95;;;;;;;2.08;89.42;101309.23;1648237;85;21651;-72
2020/12/19 08:23:08;;;;;;;44.45;19.30;;;;;;;2.11;89.29;101306.67;1661478;83;21211;-74
2020/12/19 08:25:36;;;;;;;44.90;18.57;;;;;;;2.13;89.14;101310.17;1652540;85;21179;-72
2020/12/19 08:28:04;;;;;;;40.28;18.57;;;;;;;2.14;89.18;101311.05;1652098;85;21160;-71
2020/12/19 08:30:33;;;;;;;42.60;19.98;;;;;;;2.14;89.14;101306.74;1650670;85;21215;-75
2020/12/19 08:33:07;;;;;;;43.98;18.73;;;;;;;2.14;89.16;101301.55;1651783;85;21499;-73
2020/12/19 08:35:42;;;;;;;51.98;23.85;;;;;;;2.19;89.17;101302.48;1651837;85;21171;-74
2020/12/19 08:38:26;;;;;;;47.93;22.67;;;;;;;2.23;89.03;101300.39;1642056;81;21222;-70
2020/12/19 08:43:41;;;;;;;46.10;20.83;;;;;;;2.35;89.08;101300.11;1874300;75;21955;-70
2020/12/19 08:46:14;;;;;;;43.15;20.45;;;;;;;2.34;89.04;101300.97;1776240;79;21199;-70
2020/12/19 08:48:42;;;;;;;50.95;21.65;;;;;;;2.37;88.91;101296.70;1744325;82;21418;-71
2020/12/19 08:51:18;;;;;;;40.38;19.48;;;;;;;2.42;88.82;101296.77;1743828;82;21135;-70
2020/12/19 08:53:45;;;;;;;43.78;20.15;;;;;;;2.43;88.77;101292.88;1744674;82;21165;-70
2020/12/19 08:56:18;;;;;;;48.50;21.82;;;;;;;2.43;88.68;101285.08;1745331;82;21195;-69
2020/12/19 08:58:53;;;;;;;46.60;20.20;;;;;;;2.43;88.70;101287.67;1745236;81;21834;-69
2020/12/19 09:01:21;;;;;;;51.88;23.62;;;;;;;2.44;88.62;101284.64;1756290;80;21343;-69
2020/12/19 09:03:48;;;;;;;56.20;25.95;;;;;;;2.46;88.51;101288.14;1726772;81;26480;-69
2020/12/19 09:06:17;;;;;;;47.67;21.52;;;;;;;2.44;88.51;101278.14;1698516;84;21162;-70
2020/12/19 09:08:47;;;;;;;53.08;23.52;;;;;;;2.47;88.69;101279.52;1699969;84;21202;-68
2020/12/19 09:11:25;;;;;;;46.88;22.77;;;;;;;2.47;88.52;101269.11;1696539;84;21225;-69
2020/12/19 09:14:10;;;;;;;52.83;24.07;;;;;;;2.48;88.39;101269.11;1699638;84;21229;-70
2020/12/19 09:16:53;;;;;;;48.08;22.07;;;;;;;2.49;88.30;101265.67;1699755;84;21202;-67
2020/12/19 09:19:21;;;;;;;43.87;20.17;;;;;;;2.51;88.34;101265.27;1705374;78;21110;-72
2020/12/19 09:22:00;;;;;;;47.88;20.30;;;;;;;2.52;88.22;101263.54;1732658;81;21675;-70
2020/12/19 09:24:28;;;;;;;50.25;21.77;;;;;;;2.51;88.29;101260.51;1738316;82;21440;-70
2020/12/19 09:26:56;;;;;;;58.40;26.07;;;;;;;2.56;88.42;101264.04;1741289;82;21662;-71
2020/12/19 09:29:23;;;;;;;50.65;22.17;;;;;;;2.61;88.32;101272.77;1739447;82;21464;-71
2020/12/19 09:31:51;;;;;;;50.95;23.55;;;;;;;2.65;88.50;101271.97;1728521;82;21607;-71
2020/12/19 09:34:19;;;;;;;53.20;24.05;;;;;;;2.69;88.54;101273.77;1723173;81;21648;-69
2020/12/19 09:36:49;;;;;;;45.43;21.60;;;;;;;2.76;88.42;101275.13;1727933;82;21177;-68
2020/12/19 09:39:17;;;;;;;43.20;20.72;;;;;;;2.81;88.24;101266.98;1710455;82;21362;-72
2020/12/19 09:41:45;;;;;;;42.53;20.30;;;;;;;2.83;87.99;101267.84;1705318;82;21205;-70
2020/12/19 09:44:13;;;;;;;44.13;21.20;;;;;;;2.81;87.70;101262.64;1713130;82;22247;-70
2020/12/19 09:46:40;;;;;;;41.55;20.57;;;;;;;2.80;87.75;101265.21;1728787;81;21179;-70
2020/12/19 09:49:09;;;;;;;35.13;15.50;;;;;;;2.80;87.48;101261.31;1712187;82;21171;-71
2020/12/19 09:51:37;;;;;;;46.00;21.87;;;;;;;2.81;87.44;101265.68;1721414;82;22217;-70
2020/12/19 09:54:05;;;;;;;43.35;21.35;;;;;;;2.84;87.63;101269.61;1724934;82;21207;-71
2020/12/19 09:56:39;;;;;;;40.38;19.82;;;;;;;2.85;87.62;101267.04;1732663;82;21199;-71
2020/12/19 09:59:07;;;;;;;41.80;19.67;;;;;;;2.89;87.55;101273.13;1738879;82;21150;-69
2020/12/19 10:01:36;;;;;;;44.95;21.62;;;;;;;2.94;87.61;101272.36;1698526;82;21196;-71
2020/12/19 10:04:04;;;;;;;39.92;19.77;;;;;;;2.98;87.42;101269.34;1731467;82;21939;-70
2020/12/19 10:06:32;;;;;;;39.27;19.42;;;;;;;3.05;87.10;101260.75;1713277;82;21227;-67
2020/12/19 10:09:01;;;;;;;41.00;20.97;;;;;;;3.05;87.10;101260.75;1718903;82;21558;-68
2020/12/19 10:11:29;;;;;;;45.40;21.95;;;;;;;3.11;87.17;101259.53;1726056;82;21217;-66
2020/12/19 10:13:57;;;;;;;42.40;20.57;;;;;;;3.11;87.17;101259.53;1695376;84;21169;-71
2020/12/19 10:16:25;;;;;;;47.25;22.65;;;;;;;3.13;87.18;101257.83;1701490;83;21493;-66
2020/12/19 10:18:53;;;;;;;41.28;20.82;;;;;;;3.14;86.98;101258.26;1705338;83;21275;-67
2020/12/19 10:21:21;;;;;;;44.30;22.98;;;;;;;3.15;87.04;101255.22;1689306;83;21173;-67
2020/12/19 10:23:48;;;;;;;46.05;22.48;;;;;;;3.14;86.87;101259.56;1687667;83;21229;-69
2020/12/19 10:26:16;;;;;;;38.42;19.87;;;;;;;3.14;86.87;101259.56;1701295;83;21231;-68
2020/12/19 10:28:44;;;;;;;42.10;21.02;;;;;;;3.14;86.99;101266.50;1719345;82;21400;-66
2020/12/19 10:31:12;;;;;;;44.27;21.90;;;;;;;3.18;86.81;101259.62;1690441;83;21257;-66
2020/12/19 10:33:40;;;;;;;42.70;20.95;;;;;;;3.18;86.58;101260.92;1678664;84;22150;-67
2020/12/19 10:36:08;;;;;;;46.48;23.80;;;;;;;3.17;86.64;101261.76;1701286;82;21191;-66
2020/12/19 10:38:36;;;;;;;49.10;23.90;;;;;;;3.11;86.66;101264.73;1703331;82;21214;-69
2020/12/19 10:41:04;;;;;;;52.03;22.85;;;;;;;3.11;86.66;101264.73;1692861;82;21409;-71
2020/12/19 10:43:32;;;;;;;46.05;22.05;;;;;;;3.03;86.65;101255.95;1710497;82;21202;-70
2020/12/19 10:46:01;;;;;;;39.75;19.92;;;;;;;3.06;87.16;101258.62;1699728;83;21669;-71
2020/12/19 10:48:29;;;;;;;49.18;24.07;;;;;;;3.06;87.16;101258.62;1699381;83;21197;-71
2020/12/19 10:50:57;;;;;;;38.65;19.80;;;;;;;3.09;87.08;101257.34;1695828;83;21680;-72
2020/12/19 10:53:25;;;;;;;43.38;21.77;;;;;;;3.11;87.31;101256.93;1698694;83;21374;-69
2020/12/19 10:55:53;;;;;;;46.35;24.05;;;;;;;3.17;87.17;101256.55;1719445;82;21234;-71
2020/12/19 10:58:21;;;;;;;56.65;27.67;;;;;;;3.18;87.07;101249.20;1697379;83;22250;-68
2020/12/19 11:00:49;;;;;;;57.33;27.45;;;;;;;3.19;87.08;101256.14;1683839;83;21190;-66
2020/12/19 11:03:16;;;;;;;48.10;25.65;;;;;;;3.23;87.21;101251.42;1687105;84;21198;-66
2020/12/19 11:05:44;;;;;;;49.45;26.52;;;;;;;3.23;87.21;101251.42;1685579;84;21405;-68
2020/12/19 11:08:12;;;;;;;50.55;26.73;;;;;;;3.29;87.01;101256.67;1714697;82;21223;-67
2020/12/19 11:10:42;;;;;;;50.00;26.27;;;;;;;3.31;86.78;101254.97;1701788;82;21202;-66
2020/12/19 11:13:10;;;;;;;46.63;24.15;;;;;;;3.31;86.92;101257.56;1701779;82;21144;-65
2020/12/19 11:15:40;;;;;;;43.95;21.85;;;;;;;3.36;87.02;101254.17;1701602;82;21177;-67
2020/12/19 11:18:08;;;;;;;42.55;22.90;;;;;;;3.38;86.91;101251.56;1708831;82;21218;-67
2020/12/19 11:20:37;;;;;;;51.35;26.48;;;;;;;3.45;86.71;101256.41;1707614;82;21211;-65
2020/12/19 11:23:05;;;;;;;42.30;22.40;;;;;;;3.45;86.71;101256.41;1702222;82;21211;-68
2020/12/19 11:25:33;;;;;;;34.75;18.45;;;;;;;3.45;86.63;101251.20;1701511;82;21697;-68
2020/12/19 11:28:02;;;;;;;52.00;27.22;;;;;;;3.47;86.69;101258.17;1693007;82;21249;-67
2020/12/19 11:30:30;;;;;;;49.60;26.12;;;;;;;3.48;86.35;101258.63;1695211;83;21226;-66
2020/12/19 11:32:58;;;;;;;56.75;27.60;;;;;;;3.47;85.80;101258.17;1683230;83;21688;-67